Time;durP1;ratioP1;P1;durP2;ratioP2;P2;SDS_P1;SDS_P2;PMS_P1;PMS_P2;Temp;Humidity;BMP_temperature;BMP_pressure;BME280_temperature;BME280_humidity;BME280_pressure;Samples;Min_cycle;Max_cycle;Signal;HPM_P1;HPM_P2
2022/10/16 00:01:06;;;;;;;1.75;1.23;;;;;;;15.76;nan;100280.56;5088127;28;20562;-67
2022/10/16 00:03:31;;;;;;;2.00;1.35;;;;;;;15.79;nan;100287.38;5070698;28;20032;-68
2022/10/16 00:06:00;;;;;;;1.85;1.25;;;;;;;15.82;nan;100289.63;5091720;28;20027;-68
2022/10/16 00:08:25;;;;;;;1.90;1.20;;;;;;;15.82;nan;100293.13;5067659;28;20043;-67
2022/10/16 00:10:51;;;;;;;2.50;1.35;;;;;;;15.84;nan;100284.94;5067814;28;20528;-68
2022/10/16 00:13:17;;;;;;;2.10;1.45;;;;;;;15.86;nan;100282.91;5068049;28;20040;-68
2022/10/16 00:15:43;;;;;;;4.28;1.60;;;;;;;15.87;nan;100281.88;5067571;28;20033;-68
2022/10/16 00:18:10;;;;;;;2.33;1.50;;;;;;;15.88;nan;100288.88;5068801;28;20637;-68
2022/10/16 00:20:37;;;;;;;1.95;1.30;;;;;;;15.89;nan;100286.00;5069418;28;20036;-67
2022/10/16 00:23:04;;;;;;;3.20;1.25;;;;;;;15.92;nan;100279.47;5071542;28;20032;-68
2022/10/16 00:25:32;;;;;;;2.08;1.00;;;;;;;15.95;nan;100275.63;5068621;28;20058;-67
2022/10/16 00:27:58;;;;;;;1.33;1.00;;;;;;;15.95;nan;100280.94;5083933;28;20035;-67
2022/10/16 00:30:24;;;;;;;1.38;1.08;;;;;;;15.95;nan;100283.59;5067867;28;20178;-68
2022/10/16 00:32:49;;;;;;;2.50;1.10;;;;;;;15.95;nan;100286.28;5081594;28;20178;-68
2022/10/16 00:35:14;;;;;;;2.13;1.65;;;;;;;15.95;nan;100291.63;5081690;28;20062;-68
2022/10/16 00:37:41;;;;;;;2.47;1.70;;;;;;;15.92;nan;100285.66;5066622;28;20028;-67
2022/10/16 00:40:07;;;;;;;2.67;1.50;;;;;;;15.91;nan;100291.16;5085617;28;20040;-68
2022/10/16 00:42:34;;;;;;;2.90;1.73;;;;;;;15.89;nan;100278.00;5080151;28;20024;-68
2022/10/16 00:45:01;;;;;;;2.63;1.65;;;;;;;15.86;nan;100289.06;5085378;28;20039;-68
2022/10/16 00:47:32;;;;;;;1.98;1.50;;;;;;;15.85;nan;100284.75;5067820;28;20032;-67
2022/10/16 00:50:18;;;;;;;2.15;1.35;;;;;;;15.82;nan;100274.47;5062642;28;20028;-68
2022/10/16 00:52:48;;;;;;;2.58;1.20;;;;;;;15.81;nan;100270.16;5065083;28;20146;-68
2022/10/16 00:55:14;;;;;;;2.55;1.30;;;;;;;15.80;nan;100276.53;5068123;28;20036;-68
2022/10/16 00:57:40;;;;;;;2.05;1.33;;;;;;;15.79;nan;100285.50;5067800;28;20040;-67
2022/10/16 01:00:08;;;;;;;2.90;1.60;;;;;;;15.77;nan;100286.72;5081290;28;20042;-68
2022/10/16 01:02:34;;;;;;;2.67;1.40;;;;;;;15.77;nan;100290.22;5066761;28;20038;-67
2022/10/16 01:05:00;;;;;;;2.30;1.35;;;;;;;15.80;nan;100292.50;5087326;28;20039;-67
2022/10/16 01:07:37;;;;;;;3.65;1.80;;;;;;;15.84;nan;100285.75;5064580;28;20044;-68
2022/10/16 01:10:26;;;;;;;2.00;1.40;;;;;;;15.86;nan;100285.56;5064260;28;20048;-68
2022/10/16 01:12:59;;;;;;;2.25;1.20;;;;;;;15.87;nan;100290.72;5079101;28;20036;-68
2022/10/16 01:15:36;;;;;;;4.55;1.40;;;;;;;15.88;nan;100295.03;5066685;28;20081;-68
2022/10/16 01:18:23;;;;;;;2.20;1.30;;;;;;;15.89;nan;100290.53;5067351;28;20039;-68
2022/10/16 01:21:04;;;;;;;3.13;1.40;;;;;;;15.90;nan;100287.66;5084128;28;20043;-67
2022/10/16 01:24:11;;;;;;;1.30;1.00;;;;;;;15.91;nan;100289.31;5067018;28;20054;-67
2022/10/16 01:27:01;;;;;;;1.95;1.20;;;;;;;15.89;nan;100296.66;5068567;28;20036;-68
2022/10/16 01:29:31;;;;;;;2.13;1.33;;;;;;;15.93;nan;100299.78;5079092;28;20063;-68
2022/10/16 01:32:05;;;;;;;1.73;1.23;;;;;;;15.94;nan;100304.09;5085354;28;20524;-68
2022/10/16 01:34:45;;;;;;;1.90;1.10;;;;;;;15.95;nan;100296.94;5068374;28;20036;-68
2022/10/16 01:37:29;;;;;;;1.70;1.10;;;;;;;15.95;nan;100308.44;5066263;28;20029;-68
2022/10/16 01:39:58;;;;;;;1.63;1.10;;;;;;;15.98;nan;100309.88;5081875;28;20043;-68
2022/10/16 01:42:36;;;;;;;2.97;1.35;;;;;;;15.95;nan;100307.59;5086641;28;20132;-68
2022/10/16 01:45:03;;;;;;;3.40;1.25;;;;;;;15.97;nan;100317.06;5079144;28;20423;-68
2022/10/16 01:47:31;;;;;;;1.67;1.17;;;;;;;15.93;nan;100319.28;5065238;28;20040;-67
2022/10/16 01:49:59;;;;;;;2.45;1.50;;;;;;;15.95;nan;100319.09;5087153;28;20036;-68
2022/10/16 01:52:28;;;;;;;1.30;1.02;;;;;;;15.95;nan;100316.44;5070449;28;20033;-68
2022/10/16 01:54:55;;;;;;;1.63;1.10;;;;;;;15.93;nan;100324.63;5069531;28;20082;-68
2022/10/16 01:57:21;;;;;;;2.15;0.90;;;;;;;15.93;nan;100331.78;5065748;28;20036;-68
2022/10/16 01:59:54;;;;;;;2.00;1.58;;;;;;;15.93;nan;100329.13;5083066;28;20036;-68
2022/10/16 02:02:22;;;;;;;1.48;0.95;;;;;;;15.93;nan;100321.94;5068672;28;20104;-68
2022/10/16 02:05:20;;;;;;;2.38;1.10;;;;;;;15.96;nan;100306.59;5067661;28;20044;-67
2022/10/16 02:07:47;;;;;;;2.35;1.23;;;;;;;15.93;nan;100313.94;5075887;28;20412;-68
2022/10/16 02:10:12;;;;;;;1.70;1.20;;;;;;;15.95;nan;100316.44;5076170;28;20195;-68
2022/10/16 02:12:42;;;;;;;1.38;1.02;;;;;;;15.93;nan;100305.94;5084297;28;20040;-68
2022/10/16 02:15:08;;;;;;;1.70;1.15;;;;;;;15.94;nan;100306.75;5082289;28;20051;-68
2022/10/16 02:17:33;;;;;;;2.97;1.60;;;;;;;15.92;nan;100306.97;5077457;28;20032;-67
2022/10/16 02:19:59;;;;;;;1.40;1.10;;;;;;;15.93;nan;100308.59;5076739;28;20032;-67
2022/10/16 02:22:36;;;;;;;3.50;1.40;;;;;;;15.92;nan;100304.31;5062219;28;20114;-68
2022/10/16 02:25:24;;;;;;;1.67;1.25;;;;;;;15.92;nan;100300.78;5077662;28;20031;-67
2022/10/16 02:28:02;;;;;;;2.15;1.25;;;;;;;15.92;nan;100290.13;5086923;28;20046;-68
2022/10/16 02:30:34;;;;;;;1.98;1.33;;;;;;;15.90;nan;100293.00;5086981;28;20040;-68
2022/10/16 02:33:02;;;;;;;2.88;1.25;;;;;;;15.88;nan;100302.22;5087991;28;20028;-67
2022/10/16 02:35:28;;;;;;;2.42;1.27;;;;;;;15.89;nan;100307.34;5070155;28;20535;-68
2022/10/16 02:37:55;;;;;;;3.38;1.50;;;;;;;15.91;nan;100299.97;5072190;28;20055;-68
2022/10/16 02:40:21;;;;;;;1.50;1.10;;;;;;;15.92;nan;100298.97;5082415;28;20086;-68
2022/10/16 02:42:51;;;;;;;3.00;1.20;;;;;;;15.93;nan;100310.47;5087734;28;20127;-67
2022/10/16 02:45:18;;;;;;;1.60;1.10;;;;;;;15.95;nan;100312.94;5083396;28;20342;-68
2022/10/16 02:47:44;;;;;;;1.92;1.23;;;;;;;15.95;nan;100302.28;5079306;28;20062;-68
2022/10/16 02:50:09;;;;;;;1.80;1.25;;;;;;;15.96;nan;100307.41;5080430;28;20037;-68
2022/10/16 02:52:35;;;;;;;1.83;1.30;;;;;;;15.95;nan;100305.75;5086399;28;20032;-68
2022/10/16 02:55:00;;;;;;;3.92;1.35;;;;;;;15.95;nan;100304.94;5069157;28;20045;-68
2022/10/16 02:57:26;;;;;;;2.63;1.33;;;;;;;15.92;nan;100306.97;5087339;28;20040;-68
2022/10/16 02:59:51;;;;;;;2.30;1.30;;;;;;;15.93;nan;100305.13;5081824;28;20405;-67
2022/10/16 03:02:16;;;;;;;1.42;1.10;;;;;;;15.92;nan;100317.63;5084115;28;20059;-68
2022/10/16 03:04:41;;;;;;;2.22;1.00;;;;;;;15.92;nan;100320.31;5085216;28;20491;-68
2022/10/16 03:07:07;;;;;;;1.75;1.20;;;;;;;15.96;nan;100325.25;5085042;28;20111;-68
2022/10/16 03:09:32;;;;;;;3.03;1.30;;;;;;;16.00;nan;100326.53;5084975;28;20036;-67
2022/10/16 03:11:58;;;;;;;2.45;1.30;;;;;;;16.00;nan;100327.34;5085207;28;20036;-68
2022/10/16 03:14:23;;;;;;;2.55;1.60;;;;;;;16.02;nan;100313.81;5078556;28;20086;-68
2022/10/16 03:16:48;;;;;;;1.98;1.42;;;;;;;16.02;nan;100295.16;5068537;28;20094;-68
2022/10/16 03:19:16;;;;;;;2.50;1.50;;;;;;;15.99;nan;100296.34;5083979;28;20070;-67
2022/10/16 03:21:41;;;;;;;4.10;1.67;;;;;;;15.97;nan;100306.41;5086618;28;20282;-68
2022/10/16 03:24:06;;;;;;;5.50;1.70;;;;;;;15.98;nan;100313.38;5087678;28;20044;-68
2022/10/16 03:26:31;;;;;;;2.03;1.50;;;;;;;15.99;nan;100309.66;5083579;28;20324;-68
2022/10/16 03:28:57;;;;;;;3.05;1.40;;;;;;;15.99;nan;100315.00;5088442;28;20078;-67
2022/10/16 03:31:22;;;;;;;2.20;1.37;;;;;;;16.02;nan;100316.50;5086890;28;20044;-68
2022/10/16 03:33:47;;;;;;;2.50;1.30;;;;;;;16.02;nan;100319.97;5070917;28;20875;-67
2022/10/16 03:36:12;;;;;;;3.15;1.63;;;;;;;16.03;nan;100315.47;5074889;28;20070;-68
2022/10/16 03:38:38;;;;;;;2.83;1.30;;;;;;;16.06;nan;100315.06;5079815;28;20031;-68
2022/10/16 03:41:03;;;;;;;3.35;1.10;;;;;;;16.07;nan;100314.06;5089763;28;20028;-67
2022/10/16 03:43:29;;;;;;;2.13;1.52;;;;;;;16.09;nan;100312.03;5089363;28;20273;-67
2022/10/16 03:45:54;;;;;;;1.45;1.20;;;;;;;16.11;nan;100309.97;5072627;28;20089;-67
2022/10/16 03:48:19;;;;;;;1.67;1.23;;;;;;;16.14;nan;100320.28;5090618;28;20366;-67
2022/10/16 03:50:46;;;;;;;1.88;1.20;;;;;;;16.14;nan;100317.63;5080229;28;20271;-68
2022/10/16 03:53:11;;;;;;;2.47;1.50;;;;;;;16.17;nan;100319.88;5075524;28;20036;-67
2022/10/16 03:55:37;;;;;;;2.28;1.20;;;;;;;16.18;nan;100321.53;5088588;28;20396;-67
2022/10/16 03:58:02;;;;;;;2.90;1.58;;;;;;;16.19;nan;100327.72;5068822;28;20025;-67
2022/10/16 04:00:28;;;;;;;3.03;1.33;;;;;;;16.22;nan;100322.78;5072212;28;20028;-68
2022/10/16 04:02:54;;;;;;;2.55;1.05;;;;;;;16.20;nan;100334.69;5069343;28;20024;-68
2022/10/16 04:05:19;;;;;;;3.22;1.30;;;;;;;16.19;nan;100343.72;5087067;28;20397;-67
2022/10/16 04:07:44;;;;;;;2.22;1.35;;;;;;;16.18;nan;100342.03;5082899;28;20465;-67
2022/10/16 04:10:10;;;;;;;2.63;1.40;;;;;;;16.17;nan;100343.91;5077298;28;20031;-68
2022/10/16 04:12:35;;;;;;;4.43;1.38;;;;;;;16.17;nan;100330.56;5085273;28;20327;-67
2022/10/16 04:15:00;;;;;;;2.70;1.50;;;;;;;16.21;nan;100334.50;5081305;28;20497;-68
2022/10/16 04:17:26;;;;;;;2.70;1.30;;;;;;;16.22;nan;100343.31;5085039;28;20443;-68
2022/10/16 04:19:51;;;;;;;2.13;1.55;;;;;;;16.22;nan;100341.47;5084004;28;20063;-67
2022/10/16 04:22:16;;;;;;;2.10;1.45;;;;;;;16.25;nan;100350.94;5081885;28;20031;-67
2022/10/16 04:24:41;;;;;;;2.55;1.30;;;;;;;16.25;nan;100348.25;5085684;28;20063;-68
2022/10/16 04:27:07;;;;;;;3.65;1.50;;;;;;;16.25;nan;100343.75;5081192;28;20089;-67
2022/10/16 04:29:32;;;;;;;1.52;1.23;;;;;;;16.26;nan;100366.75;5080570;28;20404;-67
2022/10/16 04:31:57;;;;;;;1.83;1.23;;;;;;;16.27;nan;100367.56;5083485;28;20032;-68
2022/10/16 04:34:22;;;;;;;2.10;1.17;;;;;;;16.26;nan;100366.75;5066826;28;20560;-68
2022/10/16 04:36:51;;;;;;;1.52;1.20;;;;;;;16.28;nan;100358.53;5079500;28;20052;-68
2022/10/16 04:39:16;;;;;;;2.53;1.20;;;;;;;16.25;nan;100349.06;5077329;28;20043;-68
2022/10/16 04:41:42;;;;;;;3.08;1.48;;;;;;;16.22;nan;100338.78;5067716;28;21459;-68
2022/10/16 04:44:07;;;;;;;2.75;1.10;;;;;;;16.18;nan;100350.88;5086202;28;20484;-69
2022/10/16 04:46:33;;;;;;;2.80;1.30;;;;;;;16.15;nan;100356.59;5086979;28;20055;-67
2022/10/16 04:48:58;;;;;;;2.80;1.50;;;;;;;16.12;nan;100354.31;5092535;28;20036;-68
2022/10/16 04:51:25;;;;;;;3.22;1.67;;;;;;;16.11;nan;100353.50;5085376;28;20032;-67
2022/10/16 04:53:50;;;;;;;2.90;1.50;;;;;;;16.09;nan;100349.38;5078785;28;20059;-67
2022/10/16 04:56:16;;;;;;;2.88;1.30;;;;;;;16.09;nan;100349.38;5083341;28;20489;-68
2022/10/16 04:58:41;;;;;;;4.65;1.42;;;;;;;16.05;nan;100343.59;5070897;28;20378;-68
2022/10/16 05:01:06;;;;;;;2.17;1.25;;;;;;;16.04;nan;100347.28;5085384;28;20032;-67
2022/10/16 05:03:32;;;;;;;2.15;1.20;;;;;;;16.04;nan;100357.09;5080382;28;20029;-68
2022/10/16 05:05:57;;;;;;;2.90;1.35;;;;;;;16.05;nan;100348.09;5086753;28;20086;-67
2022/10/16 05:08:22;;;;;;;2.13;1.33;;;;;;;16.04;nan;100338.44;5083335;28;20074;-68
2022/10/16 05:10:47;;;;;;;3.00;1.50;;;;;;;16.02;nan;100337.84;5082129;28;20052;-67
2022/10/16 05:13:13;;;;;;;4.43;1.25;;;;;;;15.98;nan;100337.38;5078905;28;20436;-68
2022/10/16 05:15:38;;;;;;;3.10;1.90;;;;;;;15.99;nan;100346.19;5066577;28;20035;-68
2022/10/16 05:18:03;;;;;;;3.60;1.48;;;;;;;16.00;nan;100351.34;5082182;28;20360;-68
2022/10/16 05:20:29;;;;;;;2.67;1.30;;;;;;;16.00;nan;100355.84;5084359;28;20044;-67
2022/10/16 05:22:54;;;;;;;1.90;1.20;;;;;;;16.01;nan;100346.81;5078113;28;20247;-68
2022/10/16 05:25:19;;;;;;;2.40;1.50;;;;;;;16.01;nan;100344.16;5083955;28;20031;-67
2022/10/16 05:27:48;;;;;;;1.55;1.10;;;;;;;16.04;nan;100344.63;5076921;28;20090;-67
2022/10/16 05:30:15;;;;;;;2.75;1.38;;;;;;;16.02;nan;100335.97;5067320;28;20060;-68
2022/10/16 05:32:40;;;;;;;2.17;1.30;;;;;;;16.04;nan;100341.09;5084854;28;20032;-67
2022/10/16 05:35:05;;;;;;;1.83;1.17;;;;;;;16.03;nan;100324.28;5086566;28;20035;-68
2022/10/16 05:37:32;;;;;;;2.03;1.10;;;;;;;16.06;nan;100315.06;5075325;28;20084;-67
2022/10/16 05:39:57;;;;;;;1.98;1.40;;;;;;;16.04;nan;100325.94;5085987;28;20032;-67
2022/10/16 05:42:22;;;;;;;1.98;1.30;;;;;;;16.05;nan;100332.91;5075657;28;20077;-67
2022/10/16 05:44:48;;;;;;;2.33;1.30;;;;;;;15.99;nan;100333.69;5068252;28;20403;-68
2022/10/16 05:47:14;;;;;;;2.58;1.40;;;;;;;15.94;nan;100330.75;5085001;28;20032;-67
2022/10/16 05:49:39;;;;;;;2.03;1.35;;;;;;;15.92;nan;100328.31;5093947;28;20493;-68
2022/10/16 05:52:04;;;;;;;2.08;1.30;;;;;;;15.94;nan;100336.09;5082796;28;20032;-68
2022/10/16 05:54:29;;;;;;;2.25;1.35;;;;;;;15.94;nan;100354.75;5068397;28;20115;-67
2022/10/16 05:56:55;;;;;;;1.90;1.20;;;;;;;15.99;nan;100359.53;5065817;28;20025;-68
2022/10/16 05:59:20;;;;;;;3.63;1.10;;;;;;;16.00;nan;100374.53;5071850;28;20040;-68
2022/10/16 06:01:45;;;;;;;1.50;1.00;;;;;;;15.99;nan;100381.69;5071405;28;20312;-68
2022/10/16 06:04:10;;;;;;;3.30;1.27;;;;;;;16.02;nan;100393.84;5081210;28;20293;-68
2022/10/16 06:06:36;;;;;;;2.38;1.20;;;;;;;16.06;nan;100389.75;5068673;28;20054;-68
2022/10/16 06:09:02;;;;;;;2.67;1.20;;;;;;;16.08;nan;100380.53;5088864;28;20413;-68
2022/10/16 06:11:31;;;;;;;1.58;1.08;;;;;;;16.08;nan;100379.72;5087383;28;20089;-68
2022/10/16 06:13:59;;;;;;;2.53;1.40;;;;;;;16.02;nan;100388.50;5087840;28;20040;-68
2022/10/16 06:16:26;;;;;;;2.10;1.20;;;;;;;15.97;nan;100398.88;5086893;28;20040;-68
2022/10/16 06:18:52;;;;;;;2.00;1.30;;;;;;;15.96;nan;100394.59;5081134;28;20241;-68
2022/10/16 06:21:21;;;;;;;2.03;1.00;;;;;;;15.94;nan;100405.44;5084694;28;20028;-68
2022/10/16 06:23:47;;;;;;;2.60;1.42;;;;;;;15.93;nan;100404.63;5087481;28;20390;-68
2022/10/16 06:26:15;;;;;;;2.00;1.00;;;;;;;15.96;nan;100415.91;5086357;28;20497;-68
2022/10/16 06:28:40;;;;;;;1.92;1.05;;;;;;;15.96;nan;100421.25;5088214;28;20113;-68
2022/10/16 06:31:08;;;;;;;1.50;1.08;;;;;;;15.96;nan;100415.91;5067349;28;20063;-68
2022/10/16 06:33:33;;;;;;;1.50;1.00;;;;;;;15.92;nan;100424.31;5086460;28;20126;-68
2022/10/16 06:36:10;;;;;;;2.95;0.98;;;;;;;15.94;nan;100426.75;5081724;28;20118;-68
2022/10/16 06:38:36;;;;;;;1.25;0.90;;;;;;;15.89;nan;100422.00;5087307;28;20660;-68
2022/10/16 06:41:01;;;;;;;2.28;1.20;;;;;;;15.92;nan;100424.31;5088175;28;20307;-68
2022/10/16 06:43:31;;;;;;;2.78;0.90;;;;;;;15.92;nan;100418.97;5085787;28;20054;-68
2022/10/16 06:45:58;;;;;;;1.30;1.00;;;;;;;15.93;nan;100414.47;5070498;28;20469;-68
2022/10/16 06:48:24;;;;;;;2.05;1.05;;;;;;;15.97;nan;100425.56;5085599;28;20115;-68
2022/10/16 06:51:00;;;;;;;2.15;1.00;;;;;;;15.98;nan;100428.06;5070231;28;20036;-68
2022/10/16 06:53:27;;;;;;;1.35;0.90;;;;;;;15.98;nan;100432.56;5083989;28;20443;-68
2022/10/16 06:55:53;;;;;;;1.23;0.70;;;;;;;15.97;nan;100436.22;5084482;28;20085;-68
2022/10/16 06:58:19;;;;;;;1.88;1.00;;;;;;;16.00;nan;100434.03;5070152;28;20040;-68
2022/10/16 07:00:44;;;;;;;1.77;1.00;;;;;;;16.06;nan;100441.25;5079700;28;20063;-68
2022/10/16 07:03:09;;;;;;;1.27;0.70;;;;;;;16.17;nan;100450.59;5083595;28;20033;-68
2022/10/16 07:05:42;;;;;;;1.10;0.80;;;;;;;16.24;nan;100454.16;5088906;28;20031;-68
2022/10/16 07:08:08;;;;;;;1.30;0.90;;;;;;;16.29;nan;100459.75;5085114;28;20270;-68
2022/10/16 07:10:34;;;;;;;1.48;0.93;;;;;;;16.35;nan;100466.16;5083073;28;20615;-68
2022/10/16 07:12:59;;;;;;;1.48;1.00;;;;;;;16.39;nan;100466.59;5080979;28;20056;-68
2022/10/16 07:15:26;;;;;;;1.13;0.82;;;;;;;16.45;nan;100465.84;5085413;28;20036;-68
2022/10/16 07:17:51;;;;;;;2.33;0.80;;;;;;;16.54;nan;100483.38;5083480;28;20681;-68
2022/10/16 07:20:16;;;;;;;1.42;0.90;;;;;;;16.57;nan;100477.66;5069227;28;20046;-68
2022/10/16 07:22:42;;;;;;;1.65;1.02;;;;;;;16.61;nan;100483.44;5095850;28;20034;-68
2022/10/16 07:25:08;;;;;;;1.55;0.90;;;;;;;16.63;nan;100482.22;5089620;28;20032;-68
2022/10/16 07:27:33;;;;;;;1.02;0.80;;;;;;;16.72;nan;100482.91;5077601;28;20036;-68
2022/10/16 07:29:59;;;;;;;1.60;1.02;;;;;;;16.89;nan;100497.66;5085101;28;20089;-68
2022/10/16 07:32:25;;;;;;;3.08;0.90;;;;;;;17.15;nan;100499.69;5079338;28;20366;-68
2022/10/16 07:34:51;;;;;;;1.58;0.90;;;;;;;17.29;nan;100495.25;5086468;28;20040;-68
2022/10/16 07:37:16;;;;;;;1.33;0.90;;;;;;;17.38;nan;100496.75;5068405;28;20058;-68
2022/10/16 07:39:41;;;;;;;1.40;0.80;;;;;;;17.44;nan;100502.34;5084562;28;20043;-68
2022/10/16 07:42:07;;;;;;;1.95;0.95;;;;;;;17.55;nan;100510.63;5085316;28;20032;-68
2022/10/16 07:44:32;;;;;;;1.10;0.77;;;;;;;17.66;nan;100511.91;5075746;28;20035;-68
2022/10/16 07:46:58;;;;;;;1.13;0.85;;;;;;;17.73;nan;100511.94;5078047;28;20444;-68
2022/10/16 07:49:23;;;;;;;1.35;0.90;;;;;;;17.76;nan;100511.56;5093549;28;20040;-68
2022/10/16 07:51:48;;;;;;;1.27;0.77;;;;;;;17.73;nan;100514.59;5067365;28;20047;-68
2022/10/16 07:54:14;;;;;;;0.63;0.60;;;;;;;17.66;nan;100521.78;5082626;28;20030;-68
2022/10/16 07:56:39;;;;;;;1.38;0.80;;;;;;;17.63;nan;100518.47;5070237;28;20347;-68
2022/10/16 07:59:04;;;;;;;2.15;0.93;;;;;;;17.63;nan;100528.34;5069664;28;20055;-68
2022/10/16 08:01:29;;;;;;;1.55;0.90;;;;;;;17.66;nan;100524.44;5072091;28;20024;-68
2022/10/16 08:03:55;;;;;;;2.10;1.10;;;;;;;17.70;nan;100528.38;5068399;28;20028;-68
2022/10/16 08:06:22;;;;;;;1.67;1.00;;;;;;;17.68;nan;100522.41;5071471;28;20275;-68
2022/10/16 08:08:47;;;;;;;1.65;1.10;;;;;;;17.63;nan;100531.03;5080746;28;20032;-68
2022/10/16 08:11:14;;;;;;;2.03;1.20;;;;;;;17.51;nan;100541.44;5073675;28;20441;-67
2022/10/16 08:13:39;;;;;;;2.72;1.40;;;;;;;17.40;nan;100545.50;5064288;28;20036;-68
2022/10/16 08:16:07;;;;;;;1.95;0.80;;;;;;;17.37;nan;100550.41;5077003;28;20028;-68
2022/10/16 08:18:36;;;;;;;1.70;1.05;;;;;;;17.28;nan;100546.22;5078395;28;20377;-68
2022/10/16 08:21:03;;;;;;;0.93;0.82;;;;;;;17.20;nan;100536.53;5075417;28;20045;-68
2022/10/16 08:23:29;;;;;;;2.22;1.10;;;;;;;17.19;nan;100538.38;5081569;28;20040;-68
2022/10/16 08:25:55;;;;;;;2.33;1.25;;;;;;;17.19;nan;100545.56;5084453;28;20454;-68
2022/10/16 08:28:22;;;;;;;1.17;0.90;;;;;;;17.26;nan;100545.63;5084499;28;20036;-68
2022/10/16 08:30:47;;;;;;;2.20;1.10;;;;;;;17.27;nan;100552.59;5075259;28;20063;-68
2022/10/16 08:33:12;;;;;;;1.23;0.90;;;;;;;17.29;nan;100547.91;5079274;28;20044;-68
2022/10/16 08:35:37;;;;;;;1.67;1.00;;;;;;;17.38;nan;100549.41;5078831;28;20120;-68
2022/10/16 08:38:04;;;;;;;1.47;0.90;;;;;;;17.54;nan;100551.78;5069048;28;20035;-68
2022/10/16 08:40:32;;;;;;;1.30;0.80;;;;;;;17.59;nan;100557.34;5072591;28;20274;-68
2022/10/16 08:43:33;;;;;;;1.50;0.82;;;;;;;17.57;nan;100562.06;5080755;28;20029;-68
2022/10/16 08:46:16;;;;;;;1.42;1.10;;;;;;;17.58;nan;100574.41;5075659;28;20045;-68
2022/10/16 08:48:45;;;;;;;2.25;1.20;;;;;;;17.61;nan;100571.34;5085878;28;20030;-68
2022/10/16 08:51:19;;;;;;;2.05;1.20;;;;;;;17.60;nan;100583.06;5078584;28;20036;-68
2022/10/16 08:53:49;;;;;;;1.80;1.23;;;;;;;17.53;nan;100590.22;5082634;28;20032;-68
2022/10/16 08:56:15;;;;;;;2.25;1.27;;;;;;;17.44;nan;100625.31;5082764;28;20085;-68
2022/10/16 08:58:40;;;;;;;2.85;1.40;;;;;;;17.27;nan;100646.16;5079259;28;20028;-68
2022/10/16 09:01:13;;;;;;;4.05;1.80;;;;;;;17.12;nan;100680.97;5067541;28;20032;-68
2022/10/16 09:04:15;;;;;;;7.13;1.98;;;;;;;16.84;nan;100667.53;5064652;28;20175;-68
2022/10/16 09:07:00;;;;;;;5.13;1.80;;;;;;;16.59;nan;100649.16;5081135;28;20055;-68
2022/10/16 09:09:32;;;;;;;3.90;1.75;;;;;;;16.39;nan;100661.44;5079492;28;20396;-68
2022/10/16 09:12:08;;;;;;;3.53;1.70;;;;;;;16.31;nan;100641.84;5067404;28;20063;-68
2022/10/16 09:14:55;;;;;;;3.28;2.00;;;;;;;16.19;nan;100643.34;5077780;28;20093;-67
2022/10/16 09:17:41;;;;;;;3.00;1.77;;;;;;;16.23;nan;100644.63;5084961;28;20094;-67
2022/10/16 09:20:17;;;;;;;6.85;2.38;;;;;;;16.32;nan;100651.50;5067604;28;20424;-67
2022/10/16 09:22:43;;;;;;;6.40;2.03;;;;;;;16.47;nan;100646.16;5088884;28;20260;-68
2022/10/16 09:25:17;;;;;;;3.35;1.85;;;;;;;16.61;nan;100655.13;5080328;28;20361;-67
2022/10/16 09:27:46;;;;;;;4.93;1.63;;;;;;;16.64;nan;100653.94;5083135;28;20042;-68
2022/10/16 09:30:20;;;;;;;2.45;1.40;;;;;;;16.59;nan;100641.16;5079962;28;20028;-68
2022/10/16 09:32:49;;;;;;;2.20;1.25;;;;;;;16.73;nan;100640.28;5082254;28;20044;-67
2022/10/16 09:35:31;;;;;;;2.97;1.50;;;;;;;17.03;nan;100629.50;5071665;28;20489;-67
2022/10/16 09:37:56;;;;;;;2.85;1.17;;;;;;;17.43;nan;100634.34;5082666;28;20051;-68
2022/10/16 09:40:36;;;;;;;1.63;1.00;;;;;;;17.80;nan;100634.03;5082911;28;20528;-68
2022/10/16 09:43:15;;;;;;;1.58;0.90;;;;;;;18.25;nan;100641.66;5081278;28;20036;-68
2022/10/16 09:45:40;;;;;;;2.30;0.90;;;;;;;18.87;nan;100637.94;5080055;28;20089;-68
2022/10/16 09:48:11;;;;;;;1.30;0.77;;;;;;;19.29;nan;100635.94;5073241;28;20126;-69
2022/10/16 09:50:36;;;;;;;1.10;0.70;;;;;;;19.63;nan;100635.91;5077582;28;20036;-68
2022/10/16 09:53:04;;;;;;;0.88;0.70;;;;;;;19.79;nan;100648.09;5082630;28;20389;-68
2022/10/16 09:55:30;;;;;;;1.20;0.70;;;;;;;19.84;nan;100634.88;5081912;28;20043;-68
2022/10/16 09:57:55;;;;;;;2.03;1.05;;;;;;;19.73;nan;100637.19;5084652;28;20032;-68
2022/10/16 10:00:23;;;;;;;1.15;0.80;;;;;;;19.85;nan;100648.06;5065858;28;20039;-68
2022/10/16 10:02:49;;;;;;;1.60;0.80;;;;;;;19.91;nan;100649.09;5079688;28;20033;-68
2022/10/16 10:05:33;;;;;;;2.00;1.00;;;;;;;19.89;nan;100640.44;5087561;28;20024;-68
2022/10/16 10:08:05;;;;;;;2.28;1.00;;;;;;;19.88;nan;100654.91;5086159;28;20043;-68
2022/10/16 10:10:32;;;;;;;1.50;0.85;;;;;;;20.04;nan;100646.38;5070288;28;20433;-68
2022/10/16 10:12:58;;;;;;;2.63;1.00;;;;;;;20.07;nan;100639.75;5072430;28;20032;-68
2022/10/16 10:15:26;;;;;;;1.80;1.02;;;;;;;20.11;nan;100647.16;5079896;28;20036;-68
2022/10/16 10:17:56;;;;;;;2.22;0.88;;;;;;;20.08;nan;100647.59;5071847;28;20043;-68
2022/10/16 10:20:27;;;;;;;1.25;0.98;;;;;;;20.28;nan;100646.69;5081492;28;20131;-68
2022/10/16 10:22:55;;;;;;;1.90;1.00;;;;;;;20.88;nan;100639.19;5084564;28;20089;-68
2022/10/16 10:25:35;;;;;;;1.85;1.10;;;;;;;21.78;nan;100640.72;5081212;28;20055;-68
2022/10/16 10:28:17;;;;;;;1.40;1.00;;;;;;;22.52;nan;100649.63;5082880;28;20095;-68
2022/10/16 10:30:48;;;;;;;2.15;1.10;;;;;;;22.81;nan;100649.84;5085139;28;20036;-68
2022/10/16 10:33:34;;;;;;;1.70;1.00;;;;;;;22.83;nan;100663.91;5065823;28;20078;-68
2022/10/16 10:36:28;;;;;;;1.40;0.90;;;;;;;23.00;nan;100653.31;5085893;28;20585;-68
2022/10/16 10:38:58;;;;;;;1.77;1.10;;;;;;;22.66;nan;100651.09;5074556;28;20070;-68
2022/10/16 10:41:29;;;;;;;2.53;0.90;;;;;;;22.33;nan;100645.31;5067870;28;20260;-68
2022/10/16 10:43:55;;;;;;;;;;;;;;;22.31;nan;100644.72;5065153;28;20079;-68
2022/10/16 10:46:34;;;;;;;2.70;1.10;;;;;;;22.66;nan;100644.88;5081604;28;20389;-68
2022/10/16 10:49:20;;;;;;;1.67;1.10;;;;;;;23.14;nan;100641.28;5089615;28;20040;-68
2022/10/16 10:51:58;;;;;;;1.63;1.10;;;;;;;23.19;nan;100640.59;5072313;28;20028;-68
2022/10/16 10:54:41;;;;;;;2.40;1.40;;;;;;;24.07;nan;100645.03;5089408;28;20044;-68
2022/10/16 10:57:29;;;;;;;1.58;0.90;;;;;;;26.33;nan;100640.66;5084456;28;20029;-68
2022/10/16 11:00:18;;;;;;;3.35;1.20;;;;;;;28.02;nan;100631.19;5085922;28;20513;-68
2022/10/16 11:02:54;;;;;;;1.20;0.80;;;;;;;29.70;nan;100630.59;5084458;28;20032;-68
2022/10/16 11:05:38;;;;;;;1.00;0.70;;;;;;;30.84;nan;100623.47;5075494;28;20032;-68
2022/10/16 11:08:10;;;;;;;1.25;0.68;;;;;;;31.01;nan;100633.97;5086002;28;20206;-69
2022/10/16 11:10:45;;;;;;;1.48;0.95;;;;;;;30.99;nan;100623.34;5087363;28;20485;-69
2022/10/16 11:13:21;;;;;;;1.25;0.90;;;;;;;30.87;nan;100631.91;5084242;28;20077;-69
2022/10/16 11:15:50;;;;;;;1.38;0.80;;;;;;;30.41;nan;100632.19;5081624;28;20039;-68
2022/10/16 11:18:18;;;;;;;2.45;0.90;;;;;;;29.56;nan;100622.13;5078439;28;20404;-69
2022/10/16 11:21:04;;;;;;;2.85;0.70;;;;;;;28.50;nan;100631.91;5085750;28;20396;-68
2022/10/16 11:23:46;;;;;;;2.55;0.90;;;;;;;27.57;nan;100624.41;5085374;28;20599;-69
2022/10/16 11:26:18;;;;;;;0.93;0.70;;;;;;;26.73;nan;100629.44;5082330;28;20283;-69
2022/10/16 11:28:50;;;;;;;1.60;0.90;;;;;;;25.95;nan;100632.31;5082768;28;20243;-68
2022/10/16 11:31:37;;;;;;;1.55;0.90;;;;;;;25.43;nan;100628.06;5087003;28;20040;-69
2022/10/16 11:34:15;;;;;;;1.67;1.02;;;;;;;25.05;nan;100636.91;5064923;28;20044;-69
2022/10/16 11:36:46;;;;;;;;;;;;;;;24.56;nan;100639.28;5082931;28;20034;-68
2022/10/16 11:39:28;;;;;;;1.48;0.90;;;;;;;24.19;nan;100636.91;5085470;28;20057;-68
2022/10/16 11:42:05;;;;;;;1.90;0.90;;;;;;;24.05;nan;100640.94;5087821;28;20040;-68
2022/10/16 11:45:06;;;;;;;1.58;0.82;;;;;;;23.66;nan;100624.41;5086363;28;20040;-69
2022/10/16 11:47:43;;;;;;;1.98;1.00;;;;;;;23.43;nan;100615.28;5082392;28;20461;-68
2022/10/16 11:50:22;;;;;;;1.48;0.80;;;;;;;23.64;nan;100618.41;5079141;28;20440;-69
2022/10/16 11:52:50;;;;;;;1.55;0.80;;;;;;;23.52;nan;100623.81;5085175;28;20949;-68